createdAt,value
2023-05-02T00:01:56.236Z,19.50
2023-05-02T00:07:59.800Z,20.50
2023-05-02T00:14:02.969Z,23.50
2023-05-02T00:20:05.673Z,21.25
2023-05-02T00:26:10.843Z,25.00
2023-05-02T00:32:20.469Z,19.50
2023-05-02T00:38:25.007Z,24.25
2023-05-02T00:44:28.931Z,22.50
2023-05-02T00:50:33.103Z,21.00
2023-05-02T00:56:36.143Z,23.25
2023-05-02T01:02:49.702Z,21.25
2023-05-02T01:09:05.956Z,25.00
2023-05-02T01:15:11.758Z,21.50
2023-05-02T01:21:14.977Z,26.25
2023-05-02T01:27:42.365Z,23.75
2023-05-02T01:33:48.345Z,30.25
2023-05-02T01:39:54.180Z,30.00
2023-05-02T01:45:58.995Z,21.75
2023-05-02T01:52:05.501Z,22.00
2023-05-02T01:58:11.888Z,21.25
2023-05-02T02:04:18.226Z,21.25
2023-05-02T02:10:25.622Z,18.25
2023-05-02T02:16:34.017Z,15.50
2023-05-02T02:22:40.678Z,17.75
2023-05-02T02:28:44.502Z,18.00
2023-05-02T02:34:53.179Z,16.75
2023-05-02T02:41:08.353Z,18.25
2023-05-02T02:47:24.643Z,21.00
2023-05-02T02:53:35.228Z,21.50
2023-05-02T02:59:48.252Z,17.00
2023-05-02T03:05:52.820Z,14.00
2023-05-02T03:11:59.716Z,16.75
2023-05-02T03:18:03.803Z,16.25
2023-05-02T03:24:06.941Z,11.50
2023-05-02T03:30:11.051Z,15.25
2023-05-02T03:36:13.556Z,15.50
2023-05-02T03:42:17.811Z,17.50
2023-05-02T03:48:21.344Z,14.50
2023-05-02T03:54:24.932Z,15.00
2023-05-02T04:07:19.776Z,17.50
